| time (UTC) | temp F | wind direction | speed MPH | gust MPH | rain 1hr in | rain 24hr in | rain mn in | humidity % | barometer mb |
| 20260509194503 | 59 | 186 | 1.0 | 3.0 | 0.03 | 0.06 | 0.06 | 83 | 1011.3 |
| 20260509194003 | 58 | 196 | 1.0 | 3.0 | 0.03 | 0.06 | 0.06 | 82 | 1011.3 |
| 20260509193503 | 58 | 187 | 1.0 | 3.0 | 0.03 | 0.06 | 0.06 | 81 | 1011.3 |
| 20260509193002 | 58 | 186 | 2.0 | 5.0 | 0.02 | 0.05 | 0.05 | 80 | 1011.3 |
| 20260509192003 | 58 | 190 | 1.0 | 3.0 | 0.03 | 0.05 | 0.05 | 79 | 1011.5 |
| 20260509191503 | 58 | 185 | 1.0 | 6.0 | 0.03 | 0.05 | 0.05 | 77 | 1011.6 |
| 20260509191003 | 59 | 189 | 1.0 | 3.0 | 0.03 | 0.04 | 0.04 | 77 | 1011.7 |
| 20260509190502 | 59 | 192 | 2.0 | 3.0 | 0.03 | 0.04 | 0.04 | 77 | 1011.6 |
| 20260509190003 | 59 | 206 | 1.0 | 3.0 | 0.03 | 0.04 | 0.04 | 77 | 1011.5 |
| 20260509185504 | 59 | 217 | 1.0 | 3.0 | 0.03 | 0.03 | 0.03 | 77 | 1011.4 |
| 20260509185004 | 59 | 218 | 2.0 | 7.0 | 0.03 | 0.03 | 0.03 | 77 | 1011.5 |
| 20260509184504 | 60 | 188 | 1.0 | 3.0 | 0.03 | 0.03 | 0.03 | 76 | 1011.6 |
| 20260509184003 | 60 | 203 | 1.0 | 3.0 | 0.03 | 0.03 | 0.03 | 76 | 1011.5 |
| 20260509183003 | 60 | 209 | 2.0 | 8.0 | 0.03 | 0.03 | 0.03 | 75 | 1011.4 |
| 20260509182504 | 60 | 246 | 2.0 | 5.0 | 0.02 | 0.02 | 0.02 | 74 | 1011.3 |
| 20260509182003 | 60 | 234 | 3.0 | 8.0 | 0.02 | 0.02 | 0.02 | 73 | 1011.1 |
| 20260509181503 | 60 | 186 | 1.0 | 3.0 | 0.02 | 0.02 | 0.02 | 72 | 1011.4 |
| 20260509181004 | 61 | 234 | 2.0 | 5.0 | 0.01 | 0.01 | 0.01 | 71 | 1011.3 |
| 20260509180004 | 62 | 218 | 3.0 | 8.0 | 0.01 | 0.01 | 0.01 | 70 | 1011.3 |
| 20260509175503 | 63 | 228 | 4.0 | 9.0 | 0.00 | 0.00 | 0.00 | 69 | 1011.3 |
| 20260509175003 | 64 | 243 | 3.0 | 9.0 | 0.00 | 0.00 | 0.00 | 67 | 1011.1 |
| 20260509174502 | 64 | 208 | 3.0 | 9.0 | 0.00 | 0.00 | 0.00 | 65 | 1010.9 |
| 20260509174003 | 65 | 229 | 5.0 | 12.0 | 0.00 | 0.00 | 0.00 | 63 | 1011.1 |
| 20260509173504 | 66 | 222 | 5.0 | 9.0 | 0.00 | 0.00 | 0.00 | 62 | 1011.1 |
| 20260509173003 | 66 | 236 | 7.0 | 10.0 | 0.00 | 0.00 | 0.00 | 61 | 1010.9 |
| 20260509172503 | 66 | 232 | 4.0 | 9.0 | 0.00 | 0.00 | 0.00 | 62 | 1010.8 |
| 20260509172003 | 66 | 176 | 2.0 | 5.0 | 0.00 | 0.00 | 0.00 | 63 | 1010.7 |
| 20260509171503 | 66 | 236 | 4.0 | 7.0 | 0.00 | 0.00 | 0.00 | 62 | 1010.9 |
| 20260509170503 | 66 | 247 | 2.0 | 7.0 | 0.00 | 0.00 | 0.00 | 64 | 1010.9 |
| 20260509170003 | 65 | 211 | 3.0 | 6.0 | 0.00 | 0.00 | 0.00 | 64 | 1011.0 |
| 20260509165004 | 64 | 206 | 2.0 | 5.0 | 0.00 | 0.00 | 0.00 | 66 | 1011.2 |
| 20260509164504 | 64 | 235 | 3.0 | 7.0 | 0.00 | 0.00 | 0.00 | 65 | 1011.4 |
| 20260509164003 | 64 | 233 | 2.0 | 5.0 | 0.00 | 0.00 | 0.00 | 65 | 1011.4 |
| 20260509163503 | 64 | 234 | 3.0 | 7.0 | 0.00 | 0.00 | 0.00 | 64 | 1011.5 |
| 20260509163003 | 65 | 223 | 2.0 | 5.0 | 0.00 | 0.00 | 0.00 | 64 | 1011.5 |
| 20260509162504 | 65 | 233 | 1.0 | 3.0 | 0.00 | 0.00 | 0.00 | 65 | 1011.5 |
| 20260509161504 | 65 | 253 | 3.0 | 3.0 | 0.00 | 0.00 | 0.00 | 64 | 1011.7 |
| 20260509155504 | 65 | 201 | 3.0 | 5.0 | 0.00 | 0.00 | 0.00 | 65 | 1011.8 |
| 20260509155003 | 65 | 224 | 1.0 | 3.0 | 0.00 | 0.00 | 0.00 | 64 | 1011.8 |
| 20260509154503 | 65 | 216 | 2.0 | 5.0 | 0.00 | 0.00 | 0.00 | 65 | 1011.9 |
| 20260509154003 | 65 | 233 | 3.0 | 5.0 | 0.00 | 0.00 | 0.00 | 65 | 1012.0 |
| 20260509153503 | 65 | 239 | 2.0 | 6.0 | 0.00 | 0.00 | 0.00 | 64 | 1012.0 |
| 20260509153003 | 65 | 227 | 3.0 | 7.0 | 0.00 | 0.00 | 0.00 | 64 | 1012.0 |
| 20260509152503 | 65 | 158 | 2.0 | 6.0 | 0.00 | 0.00 | 0.00 | 63 | 1012.0 |
| 20260509152004 | 65 | 202 | 2.0 | 7.0 | 0.00 | 0.00 | 0.00 | 64 | 1012.0 |
| 20260509151003 | 64 | 222 | 5.0 | 9.0 | 0.00 | 0.00 | 0.00 | 63 | 1012.1 |
| 20260509150003 | 64 | 222 | 2.0 | 3.0 | 0.00 | 0.00 | 0.00 | 63 | 1012.2 |
| 20260509145502 | 64 | 207 | 2.0 | 5.0 | 0.00 | 0.00 | 0.00 | 63 | 1012.2 |
| 20260509145003 | 64 | 219 | 2.0 | 5.0 | 0.00 | 0.00 | 0.00 | 62 | 1012.3 |
| 20260509144503 | 64 | 226 | 2.0 | 5.0 | 0.00 | 0.00 | 0.00 | 63 | 1012.2 |
| 20260509144003 | 64 | 198 | 2.0 | 3.0 | 0.00 | 0.00 | 0.00 | 64 | 1012.2 |
| 20260509143503 | 63 | 196 | 2.0 | 5.0 | 0.00 | 0.00 | 0.00 | 65 | 1012.1 |
| 20260509143003 | 63 | 174 | 2.0 | 3.0 | 0.00 | 0.00 | 0.00 | 64 | 1012.1 |
| 20260509142503 | 63 | 212 | 2.0 | 5.0 | 0.00 | 0.00 | 0.00 | 63 | 1012.1 |
| 20260509142004 | 63 | 178 | 2.0 | 5.0 | 0.00 | 0.00 | 0.00 | 64 | 1012.1 |
| 20260509141503 | 63 | 192 | 2.0 | 5.0 | 0.00 | 0.00 | 0.00 | 64 | 1012.1 |
| 20260509141004 | 62 | 211 | 2.0 | 7.0 | 0.00 | 0.00 | 0.00 | 64 | 1012.1 |
| 20260509140503 | 62 | 158 | 1.0 | 5.0 | 0.00 | 0.00 | 0.00 | 65 | 1012.1 |
| 20260509140004 | 62 | 212 | 1.0 | 3.0 | 0.00 | 0.00 | 0.00 | 66 | 1012.1 |
| 20260509135503 | 61 | 176 | 1.0 | 3.0 | 0.00 | 0.00 | 0.00 | 66 | 1012.1 |
| 20260509135003 | 61 | 221 | 2.0 | 5.0 | 0.00 | 0.00 | 0.00 | 66 | 1012.2 |
| 20260509134503 | 61 | 190 | 1.0 | 3.0 | 0.00 | 0.00 | 0.00 | 67 | 1012.3 |
| 20260509134003 | 60 | 174 | 1.0 | 3.0 | 0.00 | 0.00 | 0.00 | 67 | 1012.3 |
| 20260509133005 | 60 | 196 | 1.0 | 6.0 | 0.00 | 0.00 | 0.00 | 68 | 1012.4 |
| 20260509132504 | 59 | 166 | 1.0 | 3.0 | 0.00 | 0.00 | 0.00 | 68 | 1012.3 |
| 20260509131503 | 59 | 196 | 1.0 | 3.0 | 0.00 | 0.00 | 0.00 | 68 | 1012.4 |
| 20260509131004 | 58 | 188 | 0.0 | 2.0 | 0.00 | 0.00 | 0.00 | 69 | 1012.5 |
| 20260509130004 | 58 | 226 | 1.0 | 3.0 | 0.00 | 0.00 | 0.00 | 70 | 1012.5 |
| 20260509125503 | 58 | 156 | 1.0 | 3.0 | 0.00 | 0.00 | 0.00 | 70 | 1012.5 |
| 20260509125004 | 58 | 196 | 1.0 | 3.0 | 0.00 | 0.00 | 0.00 | 71 | 1012.6 |
| 20260509124503 | 57 | 252 | 1.0 | 2.0 | 0.00 | 0.00 | 0.00 | 71 | 1012.5 |
| 20260509124003 | 57 | 181 | 1.0 | 2.0 | 0.00 | 0.00 | 0.00 | 72 | 1012.7 |
| 20260509123502 | 57 | 182 | 1.0 | 3.0 | 0.00 | 0.00 | 0.00 | 73 | 1012.7 |
| 20260509123003 | 56 | 218 | 1.0 | 3.0 | 0.00 | 0.00 | 0.00 | 73 | 1012.6 |
| 20260509122503 | 56 | 203 | 1.0 | 2.0 | 0.00 | 0.00 | 0.00 | 75 | 1012.6 |
| 20260509122003 | 56 | 221 | 0.0 | 3.0 | 0.00 | 0.00 | 0.00 | 75 | 1012.7 |
| 20260509120504 | 55 | 162 | 0.0 | 1.0 | 0.00 | 0.00 | 0.00 | 78 | 1012.7 |
| 20260509120003 | 55 | 161 | 0.0 | 2.0 | 0.00 | 0.00 | 0.00 | 78 | 1012.8 |
| 20260509115004 | 55 | 163 | 1.0 | 3.0 | 0.00 | 0.00 | 0.00 | 79 | 1012.8 |
| 20260509114004 | 54 | 163 | 0.0 | 0.0 | 0.00 | 0.00 | 0.00 | 79 | 1012.9 |
| 20260509113003 | 54 | 163 | 0.0 | 2.0 | 0.00 | 0.00 | 0.00 | 79 | 1012.8 |
| 20260509112504 | 54 | 165 | 0.0 | 0.0 | 0.00 | 0.00 | 0.00 | 80 | 1012.7 |
| 20260509112003 | 54 | 161 | 0.0 | 0.0 | 0.00 | 0.00 | 0.00 | 79 | 1012.8 |
| 20260509111503 | 54 | 161 | 0.0 | 0.0 | 0.00 | 0.00 | 0.00 | 79 | 1013.0 |
| 20260509111003 | 54 | 167 | 0.0 | 0.0 | 0.00 | 0.00 | 0.00 | 79 | 1012.9 |
| 20260509110003 | 53 | 177 | 0.0 | 0.0 | 0.00 | 0.00 | 0.00 | 79 | 1012.7 |
| 20260509105004 | 53 | 177 | 0.0 | 0.0 | 0.00 | 0.00 | 0.00 | 79 | 1012.6 |
| 20260509104504 | 53 | 177 | 0.0 | 0.0 | 0.00 | 0.00 | 0.00 | 79 | 1012.6 |
| 20260509104004 | 53 | 177 | 0.0 | 0.0 | 0.00 | 0.00 | 0.00 | 79 | 1012.5 |
| 20260509103504 | 53 | 177 | 0.0 | 0.0 | 0.00 | 0.00 | 0.00 | 78 | 1012.5 |
| 20260509102504 | 53 | 177 | 0.0 | 0.0 | 0.00 | 0.00 | 0.00 | 78 | 1012.4 |
| 20260509102004 | 53 | 177 | 0.0 | 0.0 | 0.00 | 0.00 | 0.00 | 78 | 1012.4 |
| 20260509101503 | 53 | 177 | 0.0 | 0.0 | 0.00 | 0.00 | 0.00 | 78 | 1012.4 |
| 20260509100504 | 53 | 155 | 0.0 | 0.0 | 0.00 | 0.00 | 0.00 | 78 | 1012.3 |
| 20260509095504 | 53 | 154 | 0.0 | 0.0 | 0.00 | 0.00 | 0.00 | 77 | 1012.2 |
| 20260509095003 | 53 | 196 | 0.0 | 0.0 | 0.00 | 0.00 | 0.00 | 77 | 1012.1 |
| 20260509094503 | 53 | 168 | 0.0 | 0.0 | 0.00 | 0.00 | 0.00 | 77 | 1012.4 |
| 20260509094003 | 53 | 168 | 0.0 | 0.0 | 0.00 | 0.00 | 0.00 | 77 | 1012.3 |
| 20260509093004 | 53 | 168 | 0.0 | 0.0 | 0.00 | 0.00 | 0.00 | 77 | 1012.3 |
| 20260509092503 | 53 | 168 | 0.0 | 0.0 | 0.00 | 0.00 | 0.00 | 77 | 1012.3 |
| 20260509091503 | 53 | 168 | 0.0 | 0.0 | 0.00 | 0.00 | 0.00 | 77 | 1012.2 |
| 20260509091003 | 53 | 168 | 0.0 | 0.0 | 0.00 | 0.00 | 0.00 | 77 | 1012.2 |
| 20260509085503 | 53 | 168 | 0.0 | 0.0 | 0.00 | 0.00 | 0.00 | 77 | 1012.1 |
| 20260509084004 | 53 | 169 | 0.0 | 0.0 | 0.00 | 0.00 | 0.00 | 77 | 1012.5 |
| 20260509083503 | 53 | 168 | 0.0 | 0.0 | 0.00 | 0.00 | 0.00 | 77 | 1012.5 |
| 20260509083003 | 53 | 168 | 0.0 | 1.0 | 0.00 | 0.00 | 0.00 | 77 | 1012.5 |
| 20260509082503 | 53 | 168 | 0.0 | 2.0 | 0.00 | 0.00 | 0.00 | 77 | 1012.5 |
| 20260509082003 | 53 | 169 | 0.0 | 0.0 | 0.00 | 0.00 | 0.00 | 76 | 1012.6 |
| 20260509081504 | 53 | 177 | 0.0 | 0.0 | 0.00 | 0.00 | 0.00 | 76 | 1012.5 |
| 20260509081004 | 53 | 177 | 0.0 | 0.0 | 0.00 | 0.00 | 0.00 | 76 | 1012.6 |
| 20260509080503 | 52 | 177 | 0.0 | 0.0 | 0.00 | 0.00 | 0.00 | 76 | 1012.6 |
| 20260509075503 | 53 | 164 | 0.0 | 0.0 | 0.00 | 0.00 | 0.00 | 75 | 1012.4 |
| 20260509074504 | 53 | 164 | 0.0 | 0.0 | 0.00 | 0.00 | 0.00 | 75 | 1012.3 |
| 20260509074003 | 53 | 164 | 0.0 | 0.0 | 0.00 | 0.00 | 0.00 | 75 | 1012.3 |
| 20260509073003 | 53 | 164 | 0.0 | 0.0 | 0.00 | 0.00 | 0.00 | 75 | 1012.3 |
| 20260509072004 | 53 | 164 | 0.0 | 0.0 | 0.00 | 0.00 | 0.00 | 75 | 1012.3 |
| 20260509070504 | 52 | 164 | 0.0 | 0.0 | 0.00 | 0.01 | 0.00 | 74 | 1012.3 |
| 20260509070003 | 52 | 164 | 0.0 | 0.0 | 0.00 | 0.01 | 0.00 | 74 | 1012.5 |
| 20260509065503 | 52 | 164 | 0.0 | 0.0 | 0.00 | 0.01 | 0.00 | 74 | 1012.5 |
| 20260509065003 | 52 | 164 | 0.0 | 0.0 | 0.00 | 0.01 | 0.00 | 73 | 1012.5 |
| 20260509064503 | 52 | 164 | 0.0 | 0.0 | 0.00 | 0.01 | 0.00 | 73 | 1012.5 |
| 20260509063003 | 52 | 187 | 0.0 | 0.0 | 0.00 | 0.01 | 0.00 | 73 | 1013.0 |
| 20260509062513 | 52 | 181 | 0.0 | 0.0 | 0.00 | 0.01 | 0.00 | 72 | 1013.1 |
| 20260509062005 | 52 | 186 | 0.0 | 0.0 | 0.00 | 0.01 | 0.00 | 73 | 1013.1 |
| 20260509061005 | 52 | 182 | 0.0 | 1.0 | 0.00 | 0.01 | 0.00 | 72 | 1013.0 |
| 20260509060503 | 52 | 172 | 0.0 | 1.0 | 0.00 | 0.01 | 0.00 | 72 | 1012.9 |
| 20260509055003 | 52 | 177 | 0.0 | 3.0 | 0.00 | 0.01 | 0.00 | 72 | 1013.1 |
| 20260509054504 | 52 | 182 | 0.0 | 0.0 | 0.00 | 0.01 | 0.00 | 72 | 1013.0 |
| 20260509054003 | 52 | 182 | 0.0 | 0.0 | 0.00 | 0.01 | 0.00 | 72 | 1012.9 |
| 20260509053503 | 52 | 182 | 0.0 | 0.0 | 0.00 | 0.01 | 0.00 | 71 | 1012.8 |
| 20260509053003 | 52 | 182 | 0.0 | 0.0 | 0.00 | 0.01 | 0.00 | 71 | 1012.8 |
| 20260509052504 | 52 | 182 | 0.0 | 0.0 | 0.00 | 0.01 | 0.00 | 71 | 1012.8 |
| 20260509052004 | 52 | 182 | 0.0 | 0.0 | 0.00 | 0.01 | 0.00 | 71 | 1012.8 |
| 20260509051503 | 52 | 182 | 0.0 | 0.0 | 0.00 | 0.01 | 0.00 | 71 | 1012.8 |
| 20260509051003 | 52 | 182 | 0.0 | 0.0 | 0.00 | 0.01 | 0.00 | 71 | 1012.9 |
| 20260509050503 | 52 | 182 | 0.0 | 0.0 | 0.00 | 0.01 | 0.00 | 70 | 1012.8 |
| 20260509050004 | 52 | 182 | 0.0 | 0.0 | 0.00 | 0.01 | 0.00 | 70 | 1012.9 |
| 20260509045503 | 53 | 182 | 0.0 | 0.0 | 0.00 | 0.01 | 0.00 | 70 | 1012.9 |
| 20260509045003 | 53 | 182 | 0.0 | 0.0 | 0.00 | 0.01 | 0.00 | 70 | 1013.0 |
| 20260509044004 | 53 | 182 | 0.0 | 0.0 | 0.00 | 0.01 | 0.00 | 69 | 1012.9 |
| 20260509043005 | 53 | 182 | 0.0 | 0.0 | 0.00 | 0.01 | 0.00 | 69 | 1012.8 |
| 20260509042503 | 53 | 182 | 0.0 | 0.0 | 0.00 | 0.01 | 0.00 | 69 | 1012.8 |
| 20260509042004 | 54 | 182 | 0.0 | 0.0 | 0.00 | 0.01 | 0.00 | 69 | 1012.8 |
| 20260509041005 | 54 | 182 | 0.0 | 0.0 | 0.00 | 0.01 | 0.00 | 69 | 1012.9 |
| 20260509040504 | 54 | 182 | 0.0 | 1.0 | 0.00 | 0.01 | 0.00 | 69 | 1013.0 |
| 20260509040003 | 54 | 182 | 0.0 | 1.0 | 0.00 | 0.01 | 0.00 | 69 | 1013.0 |
| 20260509034003 | 54 | 182 | 0.0 | 2.0 | 0.00 | 0.01 | 0.01 | 69 | 1013.1 |
| 20260509033004 | 54 | 194 | 0.0 | 0.0 | 0.00 | 0.01 | 0.01 | 69 | 1013.2 |
| 20260509032503 | 54 | 194 | 0.0 | 1.0 | 0.00 | 0.01 | 0.01 | 69 | 1013.2 |
| 20260509032003 | 54 | 194 | 0.0 | 1.0 | 0.00 | 0.01 | 0.01 | 69 | 1013.2 |
| 20260509031503 | 54 | 194 | 0.0 | 1.0 | 0.00 | 0.01 | 0.01 | 69 | 1013.2 |
| 20260509031003 | 54 | 172 | 0.0 | 1.0 | 0.00 | 0.01 | 0.01 | 69 | 1013.2 |
| 20260509025503 | 54 | 172 | 0.0 | 2.0 | 0.00 | 0.01 | 0.01 | 69 | 1013.1 |
| 20260509024503 | 54 | 161 | 0.0 | 1.0 | 0.00 | 0.01 | 0.01 | 69 | 1013.1 |
| 20260509024003 | 54 | 171 | 0.0 | 3.0 | 0.00 | 0.01 | 0.01 | 69 | 1013.0 |
| 20260509023003 | 54 | 150 | 0.0 | 2.0 | 0.00 | 0.01 | 0.01 | 69 | 1013.1 |
| 20260509022503 | 54 | 202 | 0.0 | 2.0 | 0.00 | 0.01 | 0.01 | 68 | 1013.2 |
| 20260509022003 | 54 | 181 | 0.0 | 3.0 | 0.00 | 0.01 | 0.01 | 68 | 1013.2 |
| 20260509021004 | 54 | 162 | 0.0 | 0.0 | 0.00 | 0.01 | 0.01 | 68 | 1013.0 |
| 20260509020504 | 54 | 173 | 0.0 | 2.0 | 0.00 | 0.01 | 0.01 | 68 | 1013.1 |
| 20260509020003 | 54 | 182 | 0.0 | 2.0 | 0.00 | 0.01 | 0.01 | 68 | 1013.0 |
| 20260509015503 | 54 | 172 | 0.0 | 2.0 | 0.00 | 0.01 | 0.01 | 68 | 1013.0 |
| 20260509015004 | 54 | 159 | 0.0 | 2.0 | 0.00 | 0.01 | 0.01 | 68 | 1012.9 |
| 20260509014003 | 54 | 172 | 0.0 | 1.0 | 0.00 | 0.01 | 0.01 | 67 | 1012.8 |
| 20260509013504 | 54 | 172 | 0.0 | 0.0 | 0.00 | 0.01 | 0.01 | 67 | 1012.7 |
| 20260509013003 | 54 | 166 | 0.0 | 1.0 | 0.00 | 0.01 | 0.01 | 67 | 1012.6 |
| 20260509012503 | 54 | 166 | 0.0 | 1.0 | 0.00 | 0.01 | 0.01 | 67 | 1012.6 |
| 20260509012004 | 54 | 155 | 0.0 | 2.0 | 0.00 | 0.01 | 0.01 | 67 | 1012.7 |
| 20260509011504 | 54 | 163 | 0.0 | 0.0 | 0.00 | 0.01 | 0.01 | 66 | 1012.6 |
| 20260509011004 | 54 | 148 | 0.0 | 0.0 | 0.00 | 0.01 | 0.01 | 65 | 1012.5 |
| 20260509010004 | 55 | 168 | 0.0 | 0.0 | 0.00 | 0.01 | 0.01 | 64 | 1012.4 |
| 20260509005504 | 55 | 168 | 0.0 | 0.0 | 0.00 | 0.01 | 0.01 | 63 | 1012.3 |
| 20260509005003 | 55 | 177 | 0.0 | 2.0 | 0.00 | 0.01 | 0.01 | 63 | 1012.3 |
| 20260509004504 | 55 | 162 | 1.0 | 2.0 | 0.00 | 0.01 | 0.01 | 62 | 1012.2 |
| 20260509004003 | 55 | 158 | 1.0 | 2.0 | 0.00 | 0.01 | 0.01 | 61 | 1012.1 |
| 20260509003503 | 56 | 182 | 1.0 | 2.0 | 0.00 | 0.01 | 0.01 | 59 | 1012.0 |
| 20260509003004 | 56 | 190 | 0.0 | 0.0 | 0.00 | 0.01 | 0.01 | 58 | 1012.0 |
| 20260509001503 | 57 | 190 | 0.0 | 0.0 | 0.00 | 0.01 | 0.01 | 55 | 1011.8 |
| 20260509000504 | 57 | 190 | 0.0 | 0.0 | 0.00 | 0.01 | 0.01 | 54 | 1011.8 |
| 20260509000003 | 58 | 190 | 0.0 | 0.0 | 0.00 | 0.01 | 0.01 | 54 | 1011.8 |
| 20260508235503 | 58 | 190 | 0.0 | 0.0 | 0.00 | 0.01 | 0.01 | 54 | 1011.7 |
| 20260508235003 | 58 | 190 | 0.0 | 0.0 | 0.00 | 0.01 | 0.01 | 53 | 1011.7 |
| 20260508234503 | 58 | 190 | 0.0 | 1.0 | 0.00 | 0.01 | 0.01 | 53 | 1011.5 |
| 20260508234003 | 58 | 190 | 0.0 | 1.0 | 0.00 | 0.01 | 0.01 | 52 | 1011.4 |
| 20260508233004 | 59 | 225 | 0.0 | 2.0 | 0.00 | 0.01 | 0.01 | 52 | 1011.4 |
| 20260508232503 | 59 | 218 | 1.0 | 2.0 | 0.00 | 0.01 | 0.01 | 52 | 1011.4 |
| 20260508232003 | 59 | 235 | 1.0 | 3.0 | 0.00 | 0.01 | 0.01 | 51 | 1011.3 |
| 20260508231004 | 59 | 250 | 0.0 | 0.0 | 0.00 | 0.01 | 0.01 | 52 | 1011.2 |
| 20260508230505 | 60 | 280 | 0.0 | 0.0 | 0.00 | 0.01 | 0.01 | 51 | 1011.3 |
| 20260508230004 | 60 | 285 | 1.0 | 3.0 | 0.00 | 0.01 | 0.01 | 50 | 1011.3 |
| 20260508225503 | 60 | 242 | 1.0 | 3.0 | 0.00 | 0.01 | 0.01 | 50 | 1011.3 |
| 20260508225003 | 60 | 308 | 0.0 | 2.0 | 0.00 | 0.01 | 0.01 | 51 | 1011.2 |
| 20260508224503 | 60 | 338 | 0.0 | 2.0 | 0.00 | 0.01 | 0.01 | 49 | 1011.2 |
| 20260508224004 | 60 | 347 | 0.0 | 2.0 | 0.00 | 0.01 | 0.01 | 49 | 1011.2 |
| 20260508223504 | 60 | 326 | 1.0 | 3.0 | 0.00 | 0.01 | 0.01 | 47 | 1011.2 |
| 20260508223005 | 60 | 351 | 1.0 | 3.0 | 0.00 | 0.01 | 0.01 | 48 | 1011.1 |
| 20260508222503 | 60 | 6 | 1.0 | 3.0 | 0.00 | 0.01 | 0.01 | 48 | 1011.1 |
| 20260508222003 | 61 | 4 | 1.0 | 3.0 | 0.00 | 0.01 | 0.01 | 47 | 1011.0 |
| 20260508221503 | 61 | 10 | 1.0 | 3.0 | 0.00 | 0.01 | 0.01 | 47 | 1011.0 |
| 20260508221003 | 61 | 269 | 2.0 | 3.0 | 0.00 | 0.01 | 0.01 | 48 | 1011.1 |
| 20260508220503 | 61 | 307 | 1.0 | 3.0 | 0.00 | 0.01 | 0.01 | 48 | 1011.1 |
| 20260508220004 | 61 | 254 | 2.0 | 5.0 | 0.00 | 0.01 | 0.01 | 48 | 1011.1 |
| 20260508215504 | 61 | 285 | 1.0 | 3.0 | 0.00 | 0.01 | 0.01 | 46 | 1011.2 |
| 20260508214503 | 61 | 345 | 1.0 | 3.0 | 0.00 | 0.01 | 0.01 | 48 | 1011.3 |
| 20260508213503 | 61 | 292 | 2.0 | 3.0 | 0.00 | 0.01 | 0.01 | 51 | 1011.4 |
| 20260508213003 | 61 | 34 | 1.0 | 3.0 | 0.00 | 0.01 | 0.01 | 50 | 1011.2 |
| 20260508212503 | 60 | 275 | 0.0 | 0.0 | 0.00 | 0.01 | 0.01 | 50 | 1011.4 |
| 20260508212003 | 60 | 1 | 1.0 | 3.0 | 0.00 | 0.01 | 0.01 | 50 | 1011.4 |
| 20260508211504 | 61 | 13 | 2.0 | 3.0 | 0.00 | 0.01 | 0.01 | 49 | 1011.4 |
| 20260508211005 | 61 | 29 | 2.0 | 3.0 | 0.00 | 0.01 | 0.01 | 48 | 1011.4 |
| 20260508210504 | 61 | 274 | 2.0 | 3.0 | 0.00 | 0.01 | 0.01 | 48 | 1011.4 |
| 20260508210004 | 61 | 264 | 2.0 | 5.0 | 0.00 | 0.01 | 0.01 | 48 | 1011.4 |
| 20260508205503 | 61 | 346 | 2.0 | 5.0 | 0.00 | 0.01 | 0.01 | 48 | 1011.4 |
| 20260508205004 | 61 | 9 | 2.0 | 5.0 | 0.00 | 0.01 | 0.01 | 48 | 1011.3 |
| 20260508204004 | 61 | 286 | 2.0 | 5.0 | 0.00 | 0.01 | 0.01 | 47 | 1011.4 |
| 20260508203504 | 61 | 290 | 2.0 | 5.0 | 0.00 | 0.01 | 0.01 | 47 | 1011.4 |
| 20260508203004 | 61 | 310 | 2.0 | 5.0 | 0.00 | 0.01 | 0.01 | 46 | 1011.3 |
| 20260508202004 | 63 | 320 | 3.0 | 7.0 | 0.00 | 0.01 | 0.01 | 43 | 1011.1 |
| 20260508201503 | 63 | 303 | 2.0 | 9.0 | 0.00 | 0.01 | 0.01 | 44 | 1011.2 |
| 20260508201004 | 63 | 15 | 3.0 | 10.0 | 0.00 | 0.01 | 0.01 | 45 | 1011.2 |
| 20260508200004 | 62 | 332 | 2.0 | 7.0 | 0.00 | 0.01 | 0.01 | 45 | 1011.2 |
| 20260508195505 | 61 | 279 | 2.0 | 7.0 | 0.00 | 0.01 | 0.01 | 48 | 1011.1 |
| 20260508195005 | 60 | 279 | 2.0 | 7.0 | 0.00 | 0.01 | 0.01 | 48 | 1011.3 |